createdAt,value
2023-05-21T00:01:05.843Z,12.33
2023-05-21T00:04:09.378Z,12.32
2023-05-21T00:07:12.650Z,12.31
2023-05-21T00:10:14.711Z,12.31
2023-05-21T00:13:17.945Z,12.31
2023-05-21T00:16:20.977Z,12.28
2023-05-21T00:19:24.551Z,12.24
2023-05-21T00:22:26.521Z,12.19
2023-05-21T00:25:28.667Z,12.15
2023-05-21T00:28:30.703Z,12.15
2023-05-21T00:31:32.770Z,12.12
2023-05-21T00:34:36.387Z,12.12
2023-05-21T00:37:38.770Z,12.09
2023-05-21T00:40:41.561Z,12.08
2023-05-21T00:43:44.985Z,12.08
2023-05-21T00:46:49.029Z,12.05
2023-05-21T00:49:53.456Z,12.00
2023-05-21T00:52:56.806Z,11.98
2023-05-21T00:55:58.784Z,11.94
2023-05-21T00:59:05.552Z,11.90
2023-05-21T01:02:09.624Z,11.90
2023-05-21T01:05:13.543Z,11.90
2023-05-21T01:08:15.778Z,11.90
2023-05-21T01:11:18.905Z,11.84
2023-05-21T01:14:21.238Z,11.80
2023-05-21T01:17:24.934Z,11.83
2023-05-21T01:20:30.497Z,11.83
2023-05-21T01:23:34.760Z,11.85
2023-05-21T01:26:39.024Z,11.88
2023-05-21T01:29:41.415Z,11.93
2023-05-21T01:32:48.130Z,11.95
2023-05-21T01:35:52.180Z,11.97
2023-05-21T01:38:57.626Z,12.02
2023-05-21T01:42:01.016Z,12.04
2023-05-21T01:45:07.044Z,12.06
2023-05-21T01:48:09.633Z,12.04
2023-05-21T01:51:12.488Z,12.07
2023-05-21T01:54:16.146Z,12.05
2023-05-21T01:57:18.733Z,11.99
2023-05-21T02:00:21.479Z,11.97
2023-05-21T02:03:26.791Z,11.96
2023-05-21T02:06:29.085Z,11.97
2023-05-21T02:09:32.441Z,11.98
2023-05-21T02:12:34.629Z,12.01
2023-05-21T02:15:37.213Z,11.98
2023-05-21T02:18:40.326Z,11.97
2023-05-21T02:21:42.592Z,11.94
2023-05-21T02:24:47.295Z,11.92
2023-05-21T02:27:54.266Z,11.89
2023-05-21T02:30:56.226Z,11.85
2023-05-21T02:33:58.944Z,11.81
2023-05-21T02:37:01.985Z,11.78
2023-05-21T02:40:06.052Z,11.77
2023-05-21T02:43:08.929Z,11.77
2023-05-21T02:46:11.262Z,11.72
2023-05-21T02:49:13.422Z,11.68
2023-05-21T02:52:18.766Z,11.70
2023-05-21T02:55:22.864Z,11.64
2023-05-21T02:58:25.889Z,11.57
2023-05-21T03:01:28.381Z,11.50
2023-05-21T03:04:30.552Z,11.48
2023-05-21T03:07:33.646Z,11.40
2023-05-21T03:10:37.299Z,11.36
2023-05-21T03:13:39.350Z,11.32
2023-05-21T03:16:41.955Z,11.32
2023-05-21T03:19:44.326Z,11.32
2023-05-21T03:22:46.694Z,11.31
2023-05-21T03:25:50.928Z,11.29
2023-05-21T03:28:53.055Z,11.25
2023-05-21T03:31:55.845Z,11.27
2023-05-21T03:34:58.276Z,11.25
2023-05-21T03:38:00.607Z,11.27
2023-05-21T03:41:04.303Z,11.30
2023-05-21T03:44:06.356Z,11.33
2023-05-21T03:47:20.556Z,11.35
2023-05-21T03:50:23.371Z,11.34
2023-05-21T03:53:25.341Z,11.41
2023-05-21T03:56:29.173Z,11.43
2023-05-21T03:59:31.025Z,11.44
2023-05-21T04:02:34.249Z,11.43
2023-05-21T04:05:36.537Z,11.46
2023-05-21T04:08:38.814Z,11.47
2023-05-21T04:11:42.378Z,11.52
2023-05-21T04:14:46.440Z,11.55
2023-05-21T04:17:48.368Z,11.53
2023-05-21T04:20:50.588Z,11.51
2023-05-21T04:23:54.421Z,11.52
2023-05-21T04:27:07.048Z,11.59
2023-05-21T04:30:11.749Z,11.69
2023-05-21T04:33:18.212Z,11.74
2023-05-21T04:36:20.889Z,11.74
2023-05-21T04:39:23.132Z,11.74
2023-05-21T04:42:26.473Z,11.76
2023-05-21T04:45:30.875Z,11.74
2023-05-21T04:48:34.049Z,11.78
2023-05-21T04:51:38.011Z,11.82
2023-05-21T04:54:42.231Z,11.88
2023-05-21T04:57:45.852Z,11.90
2023-05-21T05:00:51.038Z,11.94
2023-05-21T05:03:53.244Z,11.94
2023-05-21T05:06:55.904Z,11.99
2023-05-21T05:09:58.293Z,12.01
2023-05-21T05:13:04.448Z,12.01
2023-05-21T05:16:07.290Z,11.96
2023-05-21T05:19:10.155Z,11.92
2023-05-21T05:22:13.623Z,11.87
2023-05-21T05:25:17.123Z,11.86
2023-05-21T05:28:21.860Z,11.92
2023-05-21T05:31:24.454Z,12.01
2023-05-21T05:34:27.920Z,12.03
2023-05-21T05:37:29.990Z,12.07
2023-05-21T05:40:32.037Z,12.13
2023-05-21T05:43:35.670Z,12.25
2023-05-21T05:46:38.214Z,12.32
2023-05-21T05:49:41.172Z,12.25
2023-05-21T05:52:44.709Z,12.23
2023-05-21T05:55:47.055Z,12.22
2023-05-21T05:58:50.703Z,12.23
2023-05-21T06:01:53.432Z,12.27
2023-05-21T06:04:56.224Z,12.38
2023-05-21T06:07:58.353Z,12.46
2023-05-21T06:11:00.353Z,12.52
2023-05-21T06:14:04.535Z,12.52
2023-05-21T06:17:06.708Z,12.58
2023-05-21T06:20:09.229Z,12.55
2023-05-21T06:23:11.942Z,12.57
2023-05-21T06:26:19.869Z,12.67
2023-05-21T06:29:25.723Z,12.63
2023-05-21T06:32:29.027Z,12.67
2023-05-21T06:35:31.337Z,12.77
2023-05-21T06:38:34.867Z,12.85
2023-05-21T06:41:37.225Z,12.89
2023-05-21T06:44:58.401Z,13.00
2023-05-21T06:48:07.809Z,12.98
2023-05-21T06:51:13.250Z,13.06
2023-05-21T06:54:16.139Z,13.14
2023-05-21T06:57:18.257Z,13.15
2023-05-21T07:00:22.096Z,13.22
2023-05-21T07:03:24.521Z,13.31
2023-05-21T07:06:28.513Z,13.45
2023-05-21T07:09:31.042Z,13.53
2023-05-21T07:12:33.475Z,13.48
2023-05-21T07:15:37.210Z,13.49
2023-05-21T07:18:39.825Z,13.57
2023-05-21T07:21:41.940Z,13.67
2023-05-21T07:24:44.528Z,13.78
2023-05-21T07:27:47.172Z,13.95
2023-05-21T07:30:52.099Z,14.08
2023-05-21T07:33:59.995Z,14.20
2023-05-21T07:37:06.434Z,14.22
2023-05-21T07:40:08.736Z,14.31
2023-05-21T07:43:12.469Z,14.20
2023-05-21T07:46:17.779Z,14.20
2023-05-21T07:49:21.503Z,14.39
2023-05-21T07:52:23.695Z,14.45
2023-05-21T07:55:27.140Z,14.39
2023-05-21T07:58:31.126Z,14.40
2023-05-21T08:01:37.443Z,14.55
2023-05-21T08:04:41.294Z,14.58
2023-05-21T08:07:46.398Z,14.66
2023-05-21T08:10:49.252Z,14.79
2023-05-21T08:13:52.091Z,14.92
2023-05-21T08:16:57.621Z,15.15
2023-05-21T08:19:59.808Z,15.21
2023-05-21T08:23:03.304Z,15.20
2023-05-21T08:26:16.487Z,15.28
2023-05-21T08:29:19.055Z,15.36
2023-05-21T08:32:23.596Z,15.32
2023-05-21T08:35:26.298Z,15.40
2023-05-21T08:38:48.836Z,15.60
2023-05-21T08:42:01.877Z,15.71
2023-05-21T08:45:05.526Z,15.85
2023-05-21T08:48:11.635Z,15.93
2023-05-21T08:51:14.045Z,15.95
2023-05-21T08:54:23.836Z,16.05
2023-05-21T08:57:26.546Z,16.17
2023-05-21T09:00:29.243Z,16.20
2023-05-21T09:03:33.660Z,16.27
2023-05-21T09:06:36.683Z,16.36
2023-05-21T09:09:43.040Z,16.47
2023-05-21T09:12:46.678Z,16.61
2023-05-21T09:15:49.094Z,16.79
2023-05-21T09:18:55.072Z,16.95
2023-05-21T09:22:04.758Z,17.10
2023-05-21T09:25:09.397Z,17.19
2023-05-21T09:28:13.333Z,16.95
2023-05-21T09:31:15.916Z,16.79
2023-05-21T09:34:19.647Z,16.91
2023-05-21T09:40:28.805Z,17.13
2023-05-21T09:43:31.203Z,17.14
2023-05-21T09:46:42.615Z,17.22
2023-05-21T09:49:46.427Z,17.37
2023-05-21T09:52:50.271Z,17.61
2023-05-21T09:55:53.530Z,17.77
2023-05-21T09:58:57.038Z,17.88
2023-05-21T10:01:59.908Z,17.78
2023-05-21T10:05:05.777Z,18.04
2023-05-21T10:08:09.372Z,18.14
2023-05-21T10:11:12.531Z,18.04
2023-05-21T10:14:17.709Z,17.98
2023-05-21T10:17:21.116Z,18.08
2023-05-21T10:20:30.434Z,18.20
2023-05-21T10:23:32.259Z,18.43
2023-05-21T10:26:34.679Z,18.54
2023-05-21T10:29:37.493Z,18.60
2023-05-21T10:32:40.236Z,18.57
2023-05-21T10:35:45.270Z,18.60
2023-05-21T10:38:47.568Z,18.71
2023-05-21T10:41:58.433Z,18.57
2023-05-21T10:45:16.474Z,18.62
2023-05-21T10:48:28.959Z,18.73
2023-05-21T10:51:38.579Z,18.81
2023-05-21T10:54:56.535Z,18.82
2023-05-21T10:58:08.009Z,18.97
2023-05-21T11:01:10.545Z,19.04
2023-05-21T11:04:14.635Z,19.23
2023-05-21T11:07:23.915Z,19.32
2023-05-21T11:10:39.592Z,19.33
2023-05-21T11:13:48.936Z,19.41
2023-05-21T11:16:51.368Z,19.47
2023-05-21T11:19:54.775Z,19.59
2023-05-21T11:22:58.778Z,19.69
2023-05-21T11:26:01.334Z,19.67
2023-05-21T11:29:08.393Z,19.64
2023-05-21T11:32:11.226Z,19.69
2023-05-21T11:35:14.026Z,19.79
2023-05-21T11:38:17.747Z,19.95
2023-05-21T11:41:22.316Z,19.95
2023-05-21T11:44:41.365Z,19.97
2023-05-21T11:47:44.373Z,19.97
2023-05-21T11:50:46.475Z,20.03
2023-05-21T11:53:53.779Z,19.91
2023-05-21T11:56:57.043Z,19.83
2023-05-21T11:59:59.732Z,19.98
2023-05-21T12:03:02.087Z,20.05
2023-05-21T12:06:06.685Z,20.06
2023-05-21T12:09:11.077Z,20.10
2023-05-21T12:12:14.379Z,20.19
2023-05-21T12:15:17.602Z,20.17
2023-05-21T12:18:19.655Z,20.22
2023-05-21T12:21:22.374Z,20.33
2023-05-21T12:24:48.666Z,20.36
2023-05-21T12:32:16.560Z,20.39
2023-05-21T12:39:54.814Z,20.45
2023-05-21T12:43:35.806Z,20.48
2023-05-21T12:53:59.520Z,20.87
2023-05-21T12:57:24.518Z,20.92
2023-05-21T13:01:01.880Z,20.89
2023-05-21T13:04:16.515Z,20.93
2023-05-21T13:07:39.083Z,21.05
2023-05-21T13:11:05.940Z,21.13
2023-05-21T13:14:22.495Z,21.16
2023-05-21T13:18:08.107Z,21.19
2023-05-21T13:25:33.303Z,21.57
2023-05-21T13:29:03.987Z,21.63
2023-05-21T13:37:26.506Z,21.69
2023-05-21T13:40:31.088Z,21.69
2023-05-21T13:44:19.028Z,21.62
2023-05-21T13:47:48.166Z,21.55
2023-05-21T13:51:30.793Z,21.49
2023-05-21T13:58:38.085Z,21.45
2023-05-21T14:02:23.489Z,21.43
2023-05-21T14:06:07.230Z,21.43
2023-05-21T14:09:53.534Z,21.44
2023-05-21T14:13:31.812Z,21.45
2023-05-21T14:17:11.392Z,21.54
2023-05-21T14:20:35.715Z,21.62
2023-05-21T14:27:57.421Z,21.89
2023-05-21T14:31:17.422Z,21.99
2023-05-21T14:38:51.088Z,22.15
2023-05-21T14:42:24.221Z,22.10
2023-05-21T14:45:53.337Z,22.03
2023-05-21T14:49:16.579Z,22.03
2023-05-21T14:53:06.256Z,22.11
2023-05-21T14:56:50.854Z,22.45
2023-05-21T15:00:41.443Z,22.76
2023-05-21T15:03:24.581Z,23.05
2023-05-21T15:07:12.509Z,23.40
2023-05-21T15:10:42.147Z,23.64
2023-05-21T15:17:46.117Z,23.50
2023-05-21T15:20:51.300Z,23.41
2023-05-21T15:24:00.173Z,23.40
2023-05-21T15:27:36.092Z,23.46
2023-05-21T15:30:43.492Z,23.50
2023-05-21T15:34:13.326Z,23.53
2023-05-21T15:37:17.243Z,23.60
2023-05-21T15:40:27.541Z,23.62
2023-05-21T15:44:08.656Z,23.63
2023-05-21T15:47:04.345Z,23.69
2023-05-21T15:50:12.376Z,23.71
2023-05-21T15:53:31.124Z,23.67
2023-05-21T15:56:48.253Z,23.65
2023-05-21T15:59:54.860Z,23.51
2023-05-21T16:03:07.015Z,23.34
2023-05-21T16:06:11.768Z,23.21
2023-05-21T16:09:48.636Z,23.05
2023-05-21T16:12:42.642Z,22.90
2023-05-21T16:15:48.692Z,22.77
2023-05-21T16:18:54.249Z,22.68
2023-05-21T16:22:05.000Z,22.62
2023-05-21T16:25:16.932Z,22.56
2023-05-21T16:28:24.443Z,22.47
2023-05-21T16:31:29.412Z,22.44
2023-05-21T16:34:49.862Z,22.39
2023-05-21T16:37:58.092Z,22.28
2023-05-21T16:41:15.371Z,22.29
2023-05-21T16:44:20.736Z,22.30
2023-05-21T16:47:28.127Z,22.30
2023-05-21T16:50:32.495Z,22.24
2023-05-21T16:53:44.851Z,22.18
2023-05-21T16:57:19.469Z,22.15
2023-05-21T17:04:15.275Z,22.13
2023-05-21T17:07:24.401Z,22.11
2023-05-21T17:10:44.045Z,22.14
2023-05-21T17:13:51.456Z,22.15
2023-05-21T17:16:55.717Z,22.16
2023-05-21T17:20:00.741Z,22.11
2023-05-21T17:23:39.331Z,22.05
2023-05-21T17:29:58.565Z,21.91
2023-05-21T17:33:22.980Z,21.84
2023-05-21T17:36:32.231Z,21.77
2023-05-21T17:39:47.975Z,21.74
2023-05-21T17:42:59.919Z,21.74
2023-05-21T17:46:19.682Z,21.70
2023-05-21T17:49:28.795Z,21.68
2023-05-21T17:52:33.185Z,21.61
2023-05-21T17:55:43.892Z,21.63
2023-05-21T17:58:54.709Z,21.62
2023-05-21T18:02:22.080Z,21.58
2023-05-21T18:05:27.120Z,21.63
2023-05-21T18:08:49.922Z,21.56
2023-05-21T18:11:59.968Z,21.48
2023-05-21T18:15:07.715Z,21.37
2023-05-21T18:18:42.671Z,21.31
2023-05-21T18:21:56.746Z,21.31
2023-05-21T18:25:06.834Z,21.22
2023-05-21T18:28:26.486Z,21.10
2023-05-21T18:31:37.535Z,21.02
2023-05-21T18:34:44.042Z,20.97
2023-05-21T18:37:56.561Z,20.90
2023-05-21T18:41:03.328Z,20.85
2023-05-21T18:44:13.754Z,20.74
2023-05-21T18:47:16.031Z,20.67
2023-05-21T18:50:22.383Z,20.61
2023-05-21T18:53:24.492Z,20.52
2023-05-21T18:56:27.684Z,20.47
2023-05-21T18:59:40.186Z,20.48
2023-05-21T19:02:47.396Z,20.47
2023-05-21T19:06:14.032Z,20.41
2023-05-21T19:09:19.923Z,20.34
2023-05-21T19:12:25.603Z,20.27
2023-05-21T19:15:40.221Z,20.19
2023-05-21T19:18:50.188Z,20.10
2023-05-21T19:22:06.091Z,20.05
2023-05-21T19:25:18.693Z,20.09
2023-05-21T19:28:25.447Z,20.06
2023-05-21T19:31:33.662Z,20.03
2023-05-21T19:34:40.199Z,19.97
2023-05-21T19:37:44.867Z,19.91
2023-05-21T19:40:54.435Z,19.91
2023-05-21T19:44:08.588Z,19.86
2023-05-21T19:47:13.542Z,19.83
2023-05-21T19:50:19.540Z,19.83
2023-05-21T19:53:30.097Z,19.77
2023-05-21T19:56:38.864Z,19.74
2023-05-21T19:59:57.844Z,19.69
2023-05-21T20:03:13.662Z,19.61
2023-05-21T20:06:20.068Z,19.57
2023-05-21T20:09:24.793Z,19.52
2023-05-21T20:12:50.018Z,19.52
2023-05-21T20:15:54.398Z,19.50
2023-05-21T20:19:06.119Z,19.45
2023-05-21T20:22:09.196Z,19.36
2023-05-21T20:25:25.789Z,19.36
2023-05-21T20:28:30.049Z,19.32
2023-05-21T20:31:36.831Z,19.31
2023-05-21T20:34:58.378Z,19.30
2023-05-21T20:38:12.069Z,19.32
2023-05-21T20:41:18.115Z,19.30
2023-05-21T20:44:29.110Z,19.24
2023-05-21T20:47:32.559Z,19.20
2023-05-21T20:50:42.983Z,19.17
2023-05-21T20:53:45.489Z,19.10
2023-05-21T20:56:50.954Z,19.10
2023-05-21T20:59:55.361Z,19.12
2023-05-21T21:03:02.804Z,19.06
2023-05-21T21:06:09.451Z,19.03
2023-05-21T21:09:21.134Z,18.97
2023-05-21T21:12:26.690Z,18.91
2023-05-21T21:15:31.186Z,18.88
2023-05-21T21:18:38.263Z,18.82
2023-05-21T21:21:46.587Z,18.84
2023-05-21T21:25:00.197Z,18.86
2023-05-21T21:28:02.609Z,18.81
2023-05-21T21:31:08.438Z,18.75
2023-05-21T21:34:16.475Z,18.74
2023-05-21T21:37:24.122Z,18.69
2023-05-21T21:40:27.618Z,18.67
2023-05-21T21:43:44.139Z,18.76
2023-05-21T21:46:51.393Z,18.77
2023-05-21T21:49:56.432Z,18.77
2023-05-21T21:53:03.743Z,18.75
2023-05-21T21:56:06.443Z,18.74
2023-05-21T21:59:11.602Z,18.69
2023-05-21T22:02:15.541Z,18.70
2023-05-21T22:05:18.047Z,18.66
2023-05-21T22:08:23.456Z,18.68
2023-05-21T22:12:01.048Z,18.67
2023-05-21T22:15:06.980Z,18.59
2023-05-21T22:18:14.654Z,18.52
2023-05-21T22:21:42.483Z,18.50
2023-05-21T22:24:53.624Z,18.51
2023-05-21T22:27:58.165Z,18.49
2023-05-21T22:31:03.722Z,18.50
2023-05-21T22:34:11.041Z,18.51
2023-05-21T22:37:22.328Z,18.52
2023-05-21T22:40:25.821Z,18.47
2023-05-21T22:43:41.553Z,18.40
2023-05-21T22:46:52.188Z,18.37
2023-05-21T22:49:55.942Z,18.36
2023-05-21T22:53:01.086Z,18.32
2023-05-21T22:56:05.146Z,18.33
2023-05-21T22:59:10.564Z,18.33
2023-05-21T23:02:15.349Z,18.30
2023-05-21T23:05:19.462Z,18.26
2023-05-21T23:08:25.800Z,18.23
2023-05-21T23:11:29.740Z,18.18
2023-05-21T23:14:32.163Z,18.15
2023-05-21T23:17:36.894Z,18.12
2023-05-21T23:20:42.325Z,18.08
2023-05-21T23:23:49.887Z,18.04
2023-05-21T23:26:56.735Z,18.02
2023-05-21T23:29:58.761Z,18.00
2023-05-21T23:33:03.528Z,17.98
2023-05-21T23:36:05.991Z,17.98
2023-05-21T23:39:11.752Z,17.96
2023-05-21T23:42:16.584Z,17.92
2023-05-21T23:45:26.542Z,17.89
2023-05-21T23:48:30.359Z,17.87
2023-05-21T23:51:32.706Z,17.85
2023-05-21T23:54:36.816Z,17.81
2023-05-21T23:57:40.591Z,17.76
